createdAt,value
2018-05-02T00:01:38.227Z,3.30
2018-05-02T00:04:06.859Z,3.30
2018-05-02T00:06:35.468Z,3.30
2018-05-02T00:09:03.499Z,3.30
2018-05-02T00:11:32.862Z,3.20
2018-05-02T00:14:01.479Z,3.20
2018-05-02T00:16:30.052Z,3.20
2018-05-02T00:18:58.671Z,3.20
2018-05-02T00:21:28.071Z,3.20
2018-05-02T00:23:57.461Z,3.20
2018-05-02T00:26:26.882Z,3.20
2018-05-02T00:28:56.243Z,3.20
2018-05-02T00:31:24.878Z,3.20
2018-05-02T00:33:54.234Z,3.20
2018-05-02T00:36:22.839Z,3.10
2018-05-02T00:38:51.514Z,3.10
2018-05-02T00:41:20.128Z,3.00
2018-05-02T00:43:49.606Z,3.00
2018-05-02T00:46:18.357Z,3.00
2018-05-02T00:51:51.334Z,3.00
2018-05-02T00:54:19.881Z,3.00
2018-05-02T00:56:48.437Z,2.90
2018-05-02T00:59:16.970Z,2.90
2018-05-02T01:01:45.534Z,2.90
2018-05-02T01:04:14.069Z,2.80
2018-05-02T01:06:42.654Z,2.80
2018-05-02T01:09:11.239Z,2.80
2018-05-02T01:11:39.761Z,2.70
2018-05-02T01:14:08.317Z,2.70
2018-05-02T01:16:36.546Z,2.70
2018-05-02T01:19:04.521Z,2.70
2018-05-02T01:21:33.078Z,2.70
2018-05-02T01:24:01.621Z,2.60
2018-05-02T01:26:30.178Z,2.60
2018-05-02T01:28:58.732Z,2.60
2018-05-02T01:31:27.289Z,2.60
2018-05-02T01:33:55.837Z,2.60
2018-05-02T01:36:24.363Z,2.60
2018-05-02T01:38:53.700Z,2.50
2018-05-02T01:41:22.248Z,2.50
2018-05-02T01:43:51.574Z,2.50
2018-05-02T01:46:20.146Z,2.50
2018-05-02T01:49:00.677Z,2.50
2018-05-02T01:51:29.240Z,2.50
2018-05-02T01:53:57.776Z,2.50
2018-05-02T01:56:26.342Z,2.50
2018-05-02T01:58:54.873Z,2.50
2018-05-02T02:01:23.429Z,2.40
2018-05-02T02:03:51.978Z,2.40
2018-05-02T02:06:20.494Z,2.40
2018-05-02T02:08:49.048Z,2.40
2018-05-02T02:11:17.570Z,2.40
2018-05-02T02:13:46.118Z,2.30
2018-05-02T02:16:14.669Z,2.30
2018-05-02T02:18:43.191Z,2.30
2018-05-02T02:21:11.730Z,2.20
2018-05-02T02:23:41.017Z,2.20
2018-05-02T02:26:09.570Z,2.20
2018-05-02T02:28:37.917Z,2.20
2018-05-02T02:31:06.267Z,2.20
2018-05-02T02:33:35.594Z,2.10
2018-05-02T02:36:04.154Z,2.10
2018-05-02T02:38:33.469Z,2.10
2018-05-02T02:41:02.781Z,2.00
2018-05-02T02:43:31.325Z,2.00
2018-05-02T02:45:59.875Z,2.00
2018-05-02T02:48:28.389Z,2.00
2018-05-02T02:50:56.933Z,2.00
2018-05-02T02:53:25.498Z,1.90
2018-05-02T02:55:54.025Z,1.90
2018-05-02T02:58:22.578Z,1.90
2018-05-02T03:00:51.106Z,1.90
2018-05-02T03:03:19.669Z,1.90
2018-05-02T03:05:48.249Z,1.90
2018-05-02T03:08:16.783Z,1.80
2018-05-02T03:10:45.334Z,1.80
2018-05-02T03:13:13.882Z,1.80
2018-05-02T03:15:43.252Z,1.90
2018-05-02T03:18:11.801Z,1.90
2018-05-02T03:20:40.350Z,1.90
2018-05-02T03:23:09.684Z,1.90
2018-05-02T03:25:38.218Z,1.80
2018-05-02T03:28:06.774Z,2.00
2018-05-02T03:30:35.339Z,2.00
2018-05-02T03:33:09.925Z,2.00
2018-05-02T03:35:38.526Z,2.00
2018-05-02T03:38:08.725Z,1.90
2018-05-02T03:40:37.311Z,1.90
2018-05-02T03:43:05.861Z,2.00
2018-05-02T03:45:34.678Z,2.10
2018-05-02T03:48:03.243Z,2.10
2018-05-02T03:50:31.793Z,2.10
2018-05-02T03:53:00.403Z,2.20
2018-05-02T03:55:29.864Z,2.40
2018-05-02T03:57:58.439Z,2.30
2018-05-02T04:00:38.234Z,2.40
2018-05-02T04:03:18.038Z,2.40
2018-05-02T04:05:57.852Z,2.40
2018-05-02T04:08:26.281Z,2.50
2018-05-02T04:10:55.855Z,2.50
2018-05-02T04:13:24.266Z,2.50
2018-05-02T04:15:53.631Z,2.60
2018-05-02T04:18:22.239Z,2.60
2018-05-02T04:20:51.575Z,2.60
2018-05-02T04:23:20.192Z,2.70
2018-05-02T04:25:48.809Z,2.70
2018-05-02T04:28:17.158Z,2.70
2018-05-02T04:30:45.763Z,2.70
2018-05-02T04:33:14.358Z,2.70
2018-05-02T04:35:42.984Z,2.70
2018-05-02T04:38:12.363Z,2.70
2018-05-02T04:40:41.009Z,2.70
2018-05-02T04:43:09.641Z,2.80
2018-05-02T04:45:38.234Z,2.80
2018-05-02T04:48:06.520Z,2.90
2018-05-02T04:50:35.893Z,2.90
2018-05-02T04:53:04.255Z,2.90
2018-05-02T04:55:32.920Z,3.00
2018-05-02T04:58:01.536Z,3.00
2018-05-02T05:00:30.156Z,3.10
2018-05-02T05:02:58.771Z,3.10
2018-05-02T05:05:27.442Z,3.20
2018-05-02T05:07:56.828Z,3.20
2018-05-02T05:10:25.416Z,3.20
2018-05-02T05:12:54.059Z,3.40
2018-05-02T05:15:22.676Z,3.50
2018-05-02T05:17:51.342Z,3.70
2018-05-02T05:20:20.012Z,3.80
2018-05-02T05:22:48.630Z,3.90
2018-05-02T05:25:17.297Z,3.90
2018-05-02T05:27:45.913Z,4.00
2018-05-02T05:30:15.337Z,4.10
2018-05-02T05:32:44.029Z,4.10
2018-05-02T05:35:12.705Z,4.20
2018-05-02T05:37:41.334Z,4.30
2018-05-02T05:40:09.954Z,4.40
2018-05-02T05:42:38.569Z,4.60
2018-05-02T05:45:07.162Z,4.80
2018-05-02T05:47:35.730Z,4.90
2018-05-02T05:50:04.418Z,5.10
2018-05-02T05:52:33.008Z,5.20
2018-05-02T05:55:01.622Z,5.20
2018-05-02T05:57:31.028Z,5.50
2018-05-02T06:00:00.432Z,5.70
2018-05-02T06:02:29.034Z,5.70
2018-05-02T06:04:58.402Z,5.90
2018-05-02T06:07:27.009Z,5.90
2018-05-02T06:09:56.413Z,6.20
2018-05-02T06:12:25.044Z,6.20
2018-05-02T06:14:53.683Z,6.40
2018-05-02T06:17:22.850Z,6.60
2018-05-02T06:19:51.485Z,6.70
2018-05-02T06:22:21.546Z,7.10
2018-05-02T06:24:50.037Z,7.10
2018-05-02T06:27:18.481Z,7.50
2018-05-02T06:29:47.097Z,7.80
2018-05-02T06:32:15.732Z,8.30
2018-05-02T06:34:45.105Z,8.70
2018-05-02T06:37:13.748Z,8.70
2018-05-02T06:39:42.222Z,8.90
2018-05-02T06:42:11.605Z,9.10
2018-05-02T06:44:40.215Z,9.10
2018-05-02T06:47:13.795Z,9.00
2018-05-02T06:49:42.398Z,8.90
2018-05-02T06:52:10.818Z,8.90
2018-05-02T06:54:39.544Z,9.00
2018-05-02T06:57:08.266Z,9.20
2018-05-02T06:59:41.109Z,9.60
2018-05-02T07:02:15.093Z,9.60
2018-05-02T07:04:43.757Z,9.90
2018-05-02T07:07:13.211Z,10.10
2018-05-02T07:09:42.039Z,10.10
2018-05-02T07:12:10.716Z,10.20
2018-05-02T07:14:52.595Z,10.20
2018-05-02T07:17:22.051Z,10.40
2018-05-02T07:19:51.513Z,10.50
2018-05-02T07:22:22.201Z,10.50
2018-05-02T07:24:50.848Z,10.60
2018-05-02T07:27:19.579Z,10.70
2018-05-02T07:29:49.260Z,11.00
2018-05-02T07:32:17.902Z,10.80
2018-05-02T07:34:47.322Z,11.10
2018-05-02T07:37:15.959Z,11.10
2018-05-02T07:39:45.347Z,11.60
2018-05-02T07:42:14.020Z,11.60
2018-05-02T07:44:42.776Z,11.80
2018-05-02T07:47:12.528Z,11.90
2018-05-02T07:49:41.180Z,11.90
2018-05-02T07:52:09.824Z,12.20
2018-05-02T07:54:39.200Z,12.20
2018-05-02T07:57:07.863Z,12.20
2018-05-02T07:59:37.531Z,12.50
2018-05-02T08:02:12.269Z,12.70
2018-05-02T08:04:45.731Z,12.90
2018-05-02T08:07:14.362Z,13.00
2018-05-02T08:09:43.015Z,13.10
2018-05-02T08:12:11.636Z,13.00
2018-05-02T08:14:41.031Z,13.10
2018-05-02T08:17:10.374Z,13.30
2018-05-02T08:19:39.015Z,13.30
2018-05-02T08:22:08.459Z,13.80
2018-05-02T08:24:38.015Z,13.70
2018-05-02T08:27:06.680Z,13.70
2018-05-02T08:29:35.304Z,13.90
2018-05-02T08:32:03.985Z,14.00
2018-05-02T08:34:50.141Z,14.00
2018-05-02T08:37:18.835Z,14.00
2018-05-02T08:39:47.578Z,14.20
2018-05-02T08:42:22.478Z,14.70
2018-05-02T08:44:53.127Z,14.70
2018-05-02T08:47:21.782Z,14.80
2018-05-02T08:49:50.452Z,15.10
2018-05-02T08:52:19.200Z,15.40
2018-05-02T08:54:59.564Z,15.70
2018-05-02T08:57:28.228Z,15.80
2018-05-02T08:59:56.968Z,16.10
2018-05-02T09:02:25.588Z,16.20
2018-05-02T09:04:54.194Z,16.20
2018-05-02T09:07:22.844Z,16.20
2018-05-02T09:09:59.571Z,16.40
2018-05-02T09:12:28.248Z,16.50
2018-05-02T09:14:57.945Z,16.60
2018-05-02T09:17:26.644Z,16.60
2018-05-02T09:19:56.110Z,16.60
2018-05-02T09:22:24.739Z,16.60
2018-05-02T09:24:53.328Z,16.90
2018-05-02T09:27:26.633Z,16.90
2018-05-02T09:29:55.288Z,17.00
2018-05-02T09:32:23.868Z,17.10
2018-05-02T09:34:52.475Z,17.20
2018-05-02T09:37:20.951Z,17.20
2018-05-02T09:39:49.612Z,17.30
2018-05-02T09:42:18.270Z,17.40
2018-05-02T09:44:46.942Z,17.30
2018-05-02T09:50:10.209Z,17.90
2018-05-02T09:52:38.844Z,17.90
2018-05-02T09:55:09.288Z,17.90
2018-05-02T09:57:38.053Z,17.90
2018-05-02T10:00:06.483Z,17.90
2018-05-02T10:02:35.143Z,17.80
2018-05-02T10:05:03.921Z,17.60
2018-05-02T10:07:32.543Z,18.00
2018-05-02T10:10:01.248Z,18.30
2018-05-02T10:12:29.894Z,18.20
2018-05-02T10:14:58.776Z,18.30
2018-05-02T10:17:27.505Z,18.40
2018-05-02T10:19:56.126Z,17.90
2018-05-02T10:22:26.551Z,18.10
2018-05-02T10:24:55.253Z,18.10
2018-05-02T10:27:23.849Z,18.50
2018-05-02T10:29:53.237Z,19.00
2018-05-02T10:32:21.828Z,19.00
2018-05-02T10:34:50.467Z,18.70
2018-05-02T10:37:19.220Z,18.90
2018-05-02T10:39:47.826Z,19.40
2018-05-02T10:42:17.419Z,19.30
2018-05-02T10:44:46.017Z,19.20
2018-05-02T10:47:14.685Z,19.40
2018-05-02T10:49:43.699Z,19.50
2018-05-02T10:52:12.306Z,19.60
2018-05-02T10:54:40.973Z,19.20
2018-05-02T10:57:10.533Z,18.40
2018-05-02T10:59:40.002Z,18.40
2018-05-02T11:02:09.404Z,18.60
2018-05-02T11:04:39.044Z,18.90
2018-05-02T11:07:07.749Z,18.90
2018-05-02T11:09:36.399Z,19.40
2018-05-02T11:12:05.116Z,18.90
2018-05-02T11:14:33.783Z,18.70
2018-05-02T11:17:02.428Z,18.90
2018-05-02T11:19:31.049Z,19.20
2018-05-02T11:21:59.751Z,19.50
2018-05-02T11:24:28.648Z,19.50
2018-05-02T11:26:57.383Z,19.50
2018-05-02T11:29:25.996Z,19.50
2018-05-02T11:31:55.372Z,19.80
2018-05-02T11:34:24.019Z,19.80
2018-05-02T11:36:53.444Z,20.10
2018-05-02T11:39:22.088Z,20.10
2018-05-02T11:41:50.692Z,19.90
2018-05-02T11:44:19.443Z,20.30
2018-05-02T11:47:03.231Z,20.40
2018-05-02T11:49:31.880Z,20.40
2018-05-02T11:52:00.527Z,20.60
2018-05-02T11:54:29.143Z,20.60
2018-05-02T11:56:57.784Z,21.10
2018-05-02T11:59:27.206Z,21.20
2018-05-02T12:01:55.900Z,21.20
2018-05-02T12:04:24.539Z,21.10
2018-05-02T12:06:53.889Z,21.40
2018-05-02T12:09:22.515Z,21.40
2018-05-02T12:11:53.929Z,21.40
2018-05-02T12:14:22.588Z,21.40
2018-05-02T12:16:51.245Z,21.10
2018-05-02T12:19:20.691Z,20.70
2018-05-02T12:21:49.504Z,20.60
2018-05-02T12:24:18.273Z,20.70
2018-05-02T12:26:46.936Z,20.90
2018-05-02T12:29:16.351Z,21.20
2018-05-02T12:31:44.989Z,21.20
2018-05-02T12:34:13.608Z,21.30
2018-05-02T12:36:42.272Z,21.10
2018-05-02T12:39:10.928Z,21.00
2018-05-02T12:41:40.182Z,20.90
2018-05-02T12:44:09.592Z,20.40
2018-05-02T12:46:39.049Z,20.30
2018-05-02T12:49:08.802Z,20.30
2018-05-02T12:51:38.221Z,20.30
2018-05-02T12:54:06.932Z,20.30
2018-05-02T12:56:35.682Z,20.90
2018-05-02T12:59:08.942Z,21.20
2018-05-02T13:01:37.633Z,21.50
2018-05-02T13:04:06.308Z,21.80
2018-05-02T13:06:34.933Z,21.90
2018-05-02T13:09:03.537Z,22.40
2018-05-02T13:11:32.248Z,22.40
2018-05-02T13:14:00.895Z,22.60
2018-05-02T13:16:29.549Z,22.20
2018-05-02T13:18:58.260Z,22.40
2018-05-02T13:21:26.934Z,22.60
2018-05-02T13:23:55.523Z,23.20
2018-05-02T13:26:24.172Z,22.90
2018-05-02T13:28:52.831Z,22.20
2018-05-02T13:31:35.147Z,22.50
2018-05-02T13:34:04.570Z,22.30
2018-05-02T13:36:33.223Z,22.30
2018-05-02T13:39:01.893Z,21.90
2018-05-02T13:41:30.503Z,21.90
2018-05-02T13:43:59.125Z,22.10
2018-05-02T13:46:27.734Z,22.90
2018-05-02T13:48:56.389Z,23.60
2018-05-02T13:51:25.000Z,24.20
2018-05-02T13:53:53.659Z,25.40
2018-05-02T13:56:23.091Z,26.00
2018-05-02T13:58:59.055Z,25.90
2018-05-02T14:04:21.453Z,26.10
2018-05-02T14:06:50.555Z,26.10
2018-05-02T14:09:41.448Z,25.60
2018-05-02T14:12:10.146Z,25.60
2018-05-02T14:14:38.770Z,24.30
2018-05-02T14:17:08.103Z,23.90
2018-05-02T14:19:36.721Z,23.90
2018-05-02T14:22:05.372Z,24.70
2018-05-02T14:24:34.064Z,25.20
2018-05-02T14:27:02.710Z,25.10
2018-05-02T14:29:32.103Z,24.90
2018-05-02T14:32:00.770Z,24.90
2018-05-02T14:34:29.415Z,24.90
2018-05-02T14:36:58.094Z,25.00
2018-05-02T14:39:26.816Z,24.50
2018-05-02T14:41:55.450Z,24.70
2018-05-02T14:44:24.310Z,24.70
2018-05-02T14:46:52.960Z,24.80
2018-05-02T14:49:21.614Z,24.50
2018-05-02T14:51:51.371Z,24.30
2018-05-02T14:54:19.962Z,22.80
2018-05-02T14:56:48.576Z,22.80
2018-05-02T14:59:17.351Z,22.80
2018-05-02T15:01:46.003Z,23.00
2018-05-02T15:04:15.385Z,22.90
2018-05-02T15:06:55.917Z,22.90
2018-05-02T15:09:24.596Z,23.10
2018-05-02T15:11:53.262Z,23.20
2018-05-02T15:14:21.859Z,22.80
2018-05-02T15:16:50.579Z,22.60
2018-05-02T15:19:19.290Z,22.20
2018-05-02T15:21:47.887Z,21.80
2018-05-02T15:24:16.524Z,21.40
2018-05-02T15:26:47.375Z,21.00
2018-05-02T15:29:16.032Z,20.60
2018-05-02T15:34:37.907Z,20.30
2018-05-02T15:37:07.344Z,20.50
2018-05-02T15:39:36.120Z,20.40
2018-05-02T15:42:04.748Z,20.40
2018-05-02T15:44:33.423Z,20.40
2018-05-02T15:47:02.055Z,20.40
2018-05-02T15:49:30.707Z,20.30
2018-05-02T15:52:00.137Z,19.90
2018-05-02T15:54:28.924Z,19.90
2018-05-02T15:56:57.582Z,20.10
2018-05-02T15:59:26.339Z,20.10
2018-05-02T16:01:55.039Z,20.30
2018-05-02T16:04:23.663Z,20.40
2018-05-02T16:06:53.914Z,20.30
2018-05-02T16:09:22.534Z,20.20
2018-05-02T16:11:51.222Z,20.10
2018-05-02T16:14:19.911Z,20.30
2018-05-02T16:16:48.565Z,20.20
2018-05-02T16:19:19.305Z,20.00
2018-05-02T16:21:47.999Z,20.10
2018-05-02T16:24:17.764Z,19.90
2018-05-02T16:26:46.601Z,19.80
2018-05-02T16:29:15.226Z,19.80
2018-05-02T16:31:43.872Z,19.60
2018-05-02T16:34:12.463Z,19.30
2018-05-02T16:36:41.122Z,19.30
2018-05-02T16:39:10.523Z,19.20
2018-05-02T16:41:39.927Z,19.10
2018-05-02T16:44:08.592Z,19.00
2018-05-02T16:46:37.195Z,18.90
2018-05-02T16:49:13.136Z,18.80
2018-05-02T16:51:41.774Z,18.60
2018-05-02T16:54:10.395Z,18.50
2018-05-02T16:56:39.108Z,18.60
2018-05-02T16:59:07.939Z,18.50
2018-05-02T17:01:36.603Z,18.50
2018-05-02T17:04:06.129Z,18.20
2018-05-02T17:06:34.914Z,18.10
2018-05-02T17:09:03.251Z,18.10
2018-05-02T17:11:31.836Z,18.00
2018-05-02T17:14:00.560Z,18.00
2018-05-02T17:16:29.986Z,17.90
2018-05-02T17:18:58.433Z,17.80
2018-05-02T17:21:27.070Z,17.80
2018-05-02T17:23:55.694Z,17.80
2018-05-02T17:26:24.380Z,17.70
2018-05-02T17:28:52.995Z,17.50
2018-05-02T17:31:22.448Z,17.30
2018-05-02T17:33:51.119Z,17.30
2018-05-02T17:36:19.747Z,17.30
2018-05-02T17:38:48.484Z,17.10
2018-05-02T17:41:17.886Z,16.90
2018-05-02T17:43:46.531Z,16.90
2018-05-02T17:46:15.433Z,16.80
2018-05-02T17:48:44.049Z,16.70
2018-05-02T17:51:12.716Z,16.50
2018-05-02T17:53:41.360Z,16.40
2018-05-02T17:56:10.020Z,16.20
2018-05-02T17:58:38.674Z,16.10
2018-05-02T18:01:07.348Z,16.00
2018-05-02T18:03:36.034Z,15.90
2018-05-02T18:06:04.671Z,15.90
2018-05-02T18:08:34.054Z,15.70
2018-05-02T18:11:02.677Z,15.70
2018-05-02T18:13:31.277Z,15.70
2018-05-02T18:15:59.989Z,15.60
2018-05-02T18:18:28.755Z,15.60
2018-05-02T18:20:57.411Z,15.50
2018-05-02T18:23:26.053Z,15.40
2018-05-02T18:25:54.676Z,15.30
2018-05-02T18:28:24.070Z,14.90
2018-05-02T18:30:52.741Z,14.90
2018-05-02T18:33:21.396Z,14.80
2018-05-02T18:35:50.031Z,14.70
2018-05-02T18:38:18.613Z,14.70
2018-05-02T18:40:47.227Z,14.60
2018-05-02T18:43:16.596Z,14.50
2018-05-02T18:45:45.229Z,14.50
2018-05-02T18:48:13.887Z,14.40
2018-05-02T18:50:42.559Z,14.40
2018-05-02T18:53:11.239Z,14.30
2018-05-02T18:55:51.343Z,14.20
2018-05-02T18:58:20.731Z,14.10
2018-05-02T19:00:49.412Z,14.10
2018-05-02T19:03:18.062Z,14.10
2018-05-02T19:05:46.701Z,13.90
2018-05-02T19:08:15.319Z,13.90
2018-05-02T19:10:43.973Z,13.80
2018-05-02T19:13:12.639Z,13.70
2018-05-02T19:15:44.318Z,13.70
2018-05-02T19:18:19.271Z,13.50
2018-05-02T19:20:48.775Z,13.40
2018-05-02T19:23:17.447Z,13.40
2018-05-02T19:25:51.455Z,13.40
2018-05-02T19:28:20.085Z,13.40
2018-05-02T19:30:54.066Z,13.20
2018-05-02T19:33:28.919Z,13.00
2018-05-02T19:35:57.581Z,13.00
2018-05-02T19:38:26.195Z,12.90
2018-05-02T19:41:05.150Z,12.80
2018-05-02T19:43:39.185Z,12.80
2018-05-02T19:46:07.804Z,12.70
2018-05-02T19:48:37.276Z,12.60
2018-05-02T19:51:11.530Z,12.60
2018-05-02T19:53:40.340Z,12.50
2018-05-02T19:56:08.990Z,12.40
2018-05-02T19:58:37.944Z,12.40
2018-05-02T20:01:12.269Z,12.50
2018-05-02T20:03:40.964Z,12.50
2018-05-02T20:06:09.614Z,12.40
2018-05-02T20:08:43.728Z,12.40
2018-05-02T20:11:18.766Z,12.40
2018-05-02T20:13:52.936Z,12.30
2018-05-02T20:16:21.604Z,12.30
2018-05-02T20:18:50.236Z,12.30
2018-05-02T20:21:18.896Z,12.20
2018-05-02T20:23:47.526Z,12.20
2018-05-02T20:26:16.948Z,12.20
2018-05-02T20:28:45.608Z,12.20
2018-05-02T20:31:14.230Z,12.20
2018-05-02T20:33:42.937Z,12.10
2018-05-02T20:36:11.729Z,12.10
2018-05-02T20:38:40.389Z,12.00
2018-05-02T20:41:10.073Z,12.10
2018-05-02T20:43:40.710Z,12.10
2018-05-02T20:46:09.375Z,12.10
2018-05-02T20:48:38.036Z,12.10
2018-05-02T20:51:06.753Z,12.10
2018-05-02T20:53:35.347Z,12.10
2018-05-02T20:56:03.994Z,12.10
2018-05-02T20:58:32.616Z,12.10
2018-05-02T21:01:01.209Z,12.10
2018-05-02T21:03:29.847Z,12.00
2018-05-02T21:06:00.538Z,12.00
2018-05-02T21:08:29.176Z,11.90
2018-05-02T21:10:57.779Z,11.90
2018-05-02T21:13:26.407Z,11.90
2018-05-02T21:15:55.051Z,11.90
2018-05-02T21:18:23.807Z,11.80
2018-05-02T21:20:53.212Z,11.80
2018-05-02T21:23:21.808Z,11.70
2018-05-02T21:25:50.441Z,11.80
2018-05-02T21:28:19.140Z,11.70
2018-05-02T21:30:47.762Z,11.60
2018-05-02T21:33:16.437Z,11.60
2018-05-02T21:35:45.026Z,11.60
2018-05-02T21:38:14.432Z,11.60
2018-05-02T21:40:43.856Z,11.70
2018-05-02T21:43:12.597Z,11.70
2018-05-02T21:45:41.231Z,11.60
2018-05-02T21:48:09.828Z,11.60
2018-05-02T21:50:38.436Z,11.60
2018-05-02T21:53:07.178Z,11.60
2018-05-02T21:55:36.581Z,11.50
2018-05-02T21:58:06.061Z,11.50
2018-05-02T22:00:34.689Z,11.50
2018-05-02T22:03:03.354Z,11.50
2018-05-02T22:05:31.964Z,11.40
2018-05-02T22:08:00.547Z,11.50
2018-05-02T22:10:29.947Z,11.50
2018-05-02T22:12:58.612Z,11.40
2018-05-02T22:15:27.250Z,11.40
2018-05-02T22:17:55.889Z,11.40
2018-05-02T22:20:24.537Z,11.40
2018-05-02T22:22:53.176Z,11.40
2018-05-02T22:25:21.797Z,11.40
2018-05-02T22:27:50.460Z,11.40
2018-05-02T22:30:19.829Z,11.30
2018-05-02T22:32:48.452Z,11.30
2018-05-02T22:35:17.090Z,11.30
2018-05-02T22:37:45.698Z,11.20
2018-05-02T22:40:15.231Z,11.20
2018-05-02T22:42:44.585Z,11.10
2018-05-02T22:45:13.235Z,11.10
2018-05-02T22:47:41.876Z,11.00
2018-05-02T22:50:10.485Z,11.00
2018-05-02T22:52:39.090Z,10.90
2018-05-02T22:55:08.494Z,10.70
2018-05-02T22:57:38.011Z,10.60
2018-05-02T23:00:06.052Z,10.60
2018-05-02T23:02:34.639Z,10.50
2018-05-02T23:05:03.466Z,10.50
2018-05-02T23:07:32.075Z,10.40
2018-05-02T23:10:00.696Z,10.40
2018-05-02T23:12:29.319Z,10.20
2018-05-02T23:14:57.950Z,10.20
2018-05-02T23:17:26.568Z,10.10
2018-05-02T23:19:55.138Z,10.00
2018-05-02T23:22:23.762Z,10.00
2018-05-02T23:24:52.415Z,9.90
2018-05-02T23:27:21.031Z,9.80
2018-05-02T23:29:49.672Z,9.70
2018-05-02T23:32:18.258Z,9.70
2018-05-02T23:34:46.914Z,9.60
2018-05-02T23:37:15.544Z,9.50
2018-05-02T23:39:44.151Z,9.40
2018-05-02T23:42:12.771Z,9.30
2018-05-02T23:44:41.353Z,9.20
2018-05-02T23:47:10.003Z,9.20
2018-05-02T23:49:38.632Z,9.20
2018-05-02T23:52:07.241Z,9.10
2018-05-02T23:54:35.835Z,9.00
2018-05-02T23:57:04.419Z,9.00
2018-05-02T23:59:33.039Z,8.90
